createdAt,value
2022-11-07T00:01:18.174Z,8.70
2022-11-07T00:03:45.095Z,8.70
2022-11-07T00:06:11.876Z,8.70
2022-11-07T00:08:38.495Z,8.70
2022-11-07T00:11:06.222Z,8.70
2022-11-07T00:13:33.474Z,8.80
2022-11-07T00:16:01.361Z,8.80
2022-11-07T00:18:28.062Z,8.80
2022-11-07T00:20:54.892Z,8.90
2022-11-07T00:23:21.743Z,8.90
2022-11-07T00:25:48.369Z,8.90
2022-11-07T00:28:14.982Z,8.90
2022-11-07T00:30:41.599Z,8.90
2022-11-07T00:33:08.196Z,8.90
2022-11-07T00:35:34.858Z,8.90
2022-11-07T00:38:01.477Z,8.70
2022-11-07T00:40:28.152Z,8.70
2022-11-07T00:42:54.756Z,8.60
2022-11-07T00:45:21.580Z,8.60
2022-11-07T00:47:48.245Z,8.60
2022-11-07T00:50:14.842Z,8.50
2022-11-07T00:52:41.443Z,8.50
2022-11-07T00:55:08.310Z,8.40
2022-11-07T00:57:34.908Z,8.40
2022-11-07T01:00:01.537Z,8.30
2022-11-07T01:02:28.254Z,8.20
2022-11-07T01:05:10.240Z,8.20
2022-11-07T01:07:37.825Z,8.10
2022-11-07T01:10:06.162Z,8.20
2022-11-07T01:12:34.407Z,8.10
2022-11-07T01:15:02.798Z,8.10
2022-11-07T01:17:30.586Z,8.10
2022-11-07T01:19:57.258Z,8.10
2022-11-07T01:22:23.897Z,8.10
2022-11-07T01:24:50.529Z,8.10
2022-11-07T01:27:17.280Z,8.10
2022-11-07T01:29:43.928Z,8.20
2022-11-07T01:32:10.588Z,8.20
2022-11-07T01:34:37.193Z,8.20
2022-11-07T01:37:03.822Z,8.20
2022-11-07T01:39:30.448Z,8.20
2022-11-07T01:41:57.427Z,8.20
2022-11-07T01:44:24.014Z,8.20
2022-11-07T01:46:52.408Z,8.20
2022-11-07T01:49:28.234Z,8.10
2022-11-07T01:52:00.160Z,8.10
2022-11-07T01:54:32.206Z,8.10
2022-11-07T01:57:03.505Z,8.10
2022-11-07T01:59:32.005Z,8.20
2022-11-07T02:01:59.393Z,8.10
2022-11-07T02:04:28.902Z,8.10
2022-11-07T02:07:18.433Z,8.10
2022-11-07T02:09:45.973Z,8.10
2022-11-07T02:12:14.404Z,8.10
2022-11-07T02:14:43.065Z,8.00
2022-11-07T02:17:11.569Z,7.90
2022-11-07T02:19:51.627Z,7.90
2022-11-07T02:22:41.143Z,7.90
2022-11-07T02:25:10.914Z,7.80
2022-11-07T02:27:39.342Z,7.80
2022-11-07T02:30:13.453Z,7.80
2022-11-07T02:32:40.317Z,7.70
2022-11-07T02:35:39.455Z,7.70
2022-11-07T02:38:11.930Z,7.70
2022-11-07T02:40:39.755Z,7.80
2022-11-07T02:43:09.668Z,7.80
2022-11-07T02:45:39.247Z,7.80
2022-11-07T02:48:06.400Z,7.80
2022-11-07T02:50:33.163Z,7.90
2022-11-07T02:52:59.914Z,7.90
2022-11-07T02:55:26.541Z,7.90
2022-11-07T02:57:53.245Z,7.90
2022-11-07T03:00:20.067Z,8.00
2022-11-07T03:02:47.061Z,8.10
2022-11-07T03:05:18.665Z,8.10
2022-11-07T03:07:47.000Z,8.10
2022-11-07T03:10:15.370Z,8.10
2022-11-07T03:12:42.055Z,8.10
2022-11-07T03:15:10.484Z,8.10
2022-11-07T03:17:37.261Z,8.20
2022-11-07T03:20:04.965Z,8.20
2022-11-07T03:22:31.606Z,8.10
2022-11-07T03:24:58.209Z,8.10
2022-11-07T03:27:24.869Z,8.10
2022-11-07T03:29:51.482Z,8.10
2022-11-07T03:32:18.102Z,8.00
2022-11-07T03:34:44.753Z,8.00
2022-11-07T03:37:11.362Z,8.00
2022-11-07T03:39:37.942Z,7.90
2022-11-07T03:42:04.715Z,7.90
2022-11-07T03:44:31.346Z,7.90
2022-11-07T03:46:57.901Z,7.90
2022-11-07T03:49:24.475Z,7.90
2022-11-07T03:51:51.098Z,7.90
2022-11-07T03:54:17.682Z,7.90
2022-11-07T03:56:44.272Z,7.90
2022-11-07T03:59:10.857Z,7.90
2022-11-07T04:01:39.647Z,7.90
2022-11-07T04:04:06.508Z,7.90
2022-11-07T04:06:33.109Z,8.00
2022-11-07T04:08:59.675Z,8.00
2022-11-07T04:11:44.796Z,8.00
2022-11-07T04:14:30.180Z,8.00
2022-11-07T04:17:15.523Z,7.90
2022-11-07T04:19:42.185Z,7.90
2022-11-07T04:22:08.863Z,7.90
2022-11-07T04:24:35.449Z,7.80
2022-11-07T04:27:20.671Z,7.70
2022-11-07T04:29:47.265Z,7.60
2022-11-07T04:32:13.848Z,7.60
2022-11-07T04:34:40.573Z,7.70
2022-11-07T04:37:07.178Z,7.70
2022-11-07T04:39:33.814Z,7.80
2022-11-07T04:42:00.424Z,7.80
2022-11-07T04:44:27.032Z,7.70
2022-11-07T04:46:53.693Z,7.70
2022-11-07T04:49:20.293Z,7.50
2022-11-07T04:51:46.862Z,7.40
2022-11-07T04:54:14.206Z,7.20
2022-11-07T04:56:40.930Z,7.20
2022-11-07T04:59:08.222Z,7.20
2022-11-07T05:01:34.921Z,7.10
2022-11-07T05:04:01.566Z,7.10
2022-11-07T05:06:28.605Z,7.10
2022-11-07T05:08:55.192Z,7.20
2022-11-07T05:11:21.785Z,7.30
2022-11-07T05:13:48.374Z,7.30
2022-11-07T05:16:17.174Z,7.30
2022-11-07T05:18:44.061Z,7.20
2022-11-07T05:21:11.006Z,7.30
2022-11-07T05:23:37.636Z,7.40
2022-11-07T05:26:04.462Z,7.40
2022-11-07T05:28:38.651Z,7.40
2022-11-07T05:31:07.161Z,7.30
2022-11-07T05:33:34.588Z,7.30
2022-11-07T05:36:11.505Z,7.10
2022-11-07T05:38:40.410Z,7.10
2022-11-07T05:41:07.160Z,7.00
2022-11-07T05:43:33.965Z,7.10
2022-11-07T05:46:01.332Z,7.10
2022-11-07T05:48:28.084Z,7.10
2022-11-07T05:50:54.691Z,7.10
2022-11-07T05:53:21.617Z,7.30
2022-11-07T05:55:48.821Z,7.30
2022-11-07T05:58:15.494Z,7.50
2022-11-07T06:00:42.246Z,7.60
2022-11-07T06:03:09.515Z,7.80
2022-11-07T06:05:41.465Z,7.90
2022-11-07T06:08:10.942Z,7.90
2022-11-07T06:10:38.790Z,7.90
2022-11-07T06:13:08.423Z,7.90
2022-11-07T06:15:36.755Z,7.90
2022-11-07T06:18:04.949Z,7.70
2022-11-07T06:20:31.588Z,7.60
2022-11-07T06:23:06.976Z,7.40
2022-11-07T06:25:33.639Z,7.20
2022-11-07T06:28:06.550Z,7.00
2022-11-07T06:30:34.941Z,6.80
2022-11-07T06:33:11.061Z,6.70
2022-11-07T06:35:37.662Z,6.50
2022-11-07T06:38:07.322Z,6.40
2022-11-07T06:40:34.204Z,6.40
2022-11-07T06:43:13.484Z,6.30
2022-11-07T06:45:41.086Z,6.40
2022-11-07T06:48:08.643Z,6.30
2022-11-07T06:50:35.707Z,6.20
2022-11-07T06:53:13.005Z,6.20
2022-11-07T06:55:40.459Z,6.20
2022-11-07T06:58:07.056Z,6.30
2022-11-07T07:00:35.060Z,6.30
2022-11-07T07:03:06.912Z,6.30
2022-11-07T07:05:36.980Z,6.30
2022-11-07T07:08:05.188Z,6.40
2022-11-07T07:10:34.719Z,6.40
2022-11-07T07:13:01.418Z,6.40
2022-11-07T07:15:28.141Z,6.40
2022-11-07T07:17:58.418Z,6.40
2022-11-07T07:20:25.027Z,6.50
2022-11-07T07:22:57.002Z,6.40
2022-11-07T07:25:27.052Z,6.50
2022-11-07T07:27:53.777Z,6.50
2022-11-07T07:30:20.372Z,6.40
2022-11-07T07:32:47.078Z,6.40
2022-11-07T07:35:13.669Z,6.50
2022-11-07T07:37:44.340Z,6.60
2022-11-07T07:40:11.551Z,6.70
2022-11-07T07:42:43.107Z,6.80
2022-11-07T07:45:13.805Z,6.90
2022-11-07T07:47:41.153Z,7.20
2022-11-07T07:50:12.290Z,7.70
2022-11-07T07:52:38.968Z,8.10
2022-11-07T07:55:08.992Z,8.30
2022-11-07T07:57:43.166Z,8.50
2022-11-07T08:00:11.854Z,8.80
2022-11-07T08:02:39.067Z,9.00
2022-11-07T08:05:06.347Z,9.20
2022-11-07T08:07:32.965Z,9.40
2022-11-07T08:10:09.800Z,9.60
2022-11-07T08:12:46.433Z,9.80
2022-11-07T08:15:19.102Z,10.00
2022-11-07T08:17:45.842Z,10.10
2022-11-07T08:20:14.737Z,10.20
2022-11-07T08:22:41.686Z,10.20
2022-11-07T08:25:10.778Z,10.30
2022-11-07T08:27:39.675Z,10.40
2022-11-07T08:30:08.014Z,10.50
2022-11-07T08:32:34.953Z,10.60
2022-11-07T08:35:01.668Z,10.70
2022-11-07T08:37:28.266Z,10.80
2022-11-07T08:39:54.860Z,10.90
2022-11-07T08:42:21.466Z,10.90
2022-11-07T08:44:48.068Z,11.00
2022-11-07T08:47:14.722Z,11.10
2022-11-07T08:49:41.844Z,11.20
2022-11-07T08:52:08.653Z,11.20
2022-11-07T08:54:37.362Z,11.20
2022-11-07T08:57:04.293Z,11.30
2022-11-07T08:59:30.932Z,11.40
2022-11-07T09:02:28.329Z,11.50
2022-11-07T09:04:50.323Z,11.60
2022-11-07T09:07:16.996Z,11.60
2022-11-07T09:09:43.600Z,11.70
2022-11-07T09:12:10.225Z,11.80
2022-11-07T09:14:37.915Z,12.00
2022-11-07T09:17:07.831Z,12.00
2022-11-07T09:19:34.779Z,12.10
2022-11-07T09:22:02.501Z,12.20
2022-11-07T09:24:29.116Z,12.30
2022-11-07T09:26:55.760Z,12.30
2022-11-07T09:29:22.612Z,12.30
2022-11-07T09:31:49.199Z,12.40
2022-11-07T09:34:15.857Z,12.40
2022-11-07T09:36:42.529Z,12.50
2022-11-07T09:39:17.440Z,12.60
2022-11-07T09:42:17.403Z,12.70
2022-11-07T09:44:52.930Z,12.90
2022-11-07T09:47:41.473Z,13.00
2022-11-07T09:50:16.675Z,13.30
2022-11-07T09:53:07.480Z,13.30
2022-11-07T09:55:42.752Z,13.20
2022-11-07T09:58:31.503Z,13.30
2022-11-07T10:01:02.835Z,13.50
2022-11-07T10:03:29.985Z,13.50
2022-11-07T10:06:11.969Z,13.30
2022-11-07T10:08:57.595Z,13.30
2022-11-07T10:11:45.429Z,13.30
2022-11-07T10:14:40.630Z,13.10
2022-11-07T10:17:36.103Z,13.10
2022-11-07T10:20:27.600Z,13.10
2022-11-07T10:23:13.019Z,13.10
2022-11-07T10:25:46.644Z,13.10
2022-11-07T10:28:22.206Z,13.10
2022-11-07T10:30:51.392Z,13.10
2022-11-07T10:33:36.325Z,13.10
2022-11-07T10:36:16.377Z,13.10
2022-11-07T10:38:43.297Z,13.10
2022-11-07T10:41:22.491Z,13.10
2022-11-07T10:44:02.322Z,13.10
2022-11-07T10:46:39.014Z,13.20
2022-11-07T10:49:19.021Z,13.30
2022-11-07T10:51:45.647Z,13.50
2022-11-07T10:54:29.726Z,13.50
2022-11-07T10:57:07.131Z,13.60
2022-11-07T10:59:37.162Z,13.80
2022-11-07T11:02:19.503Z,13.90
2022-11-07T11:04:57.920Z,13.90
2022-11-07T11:07:41.174Z,14.20
2022-11-07T11:10:22.892Z,14.30
2022-11-07T11:12:50.433Z,14.50
2022-11-07T11:15:20.088Z,14.40
2022-11-07T11:17:55.751Z,14.40
2022-11-07T11:20:53.947Z,14.20
2022-11-07T11:23:49.145Z,14.10
2022-11-07T11:26:32.366Z,14.00
2022-11-07T11:29:10.022Z,14.10
2022-11-07T11:31:52.770Z,14.00
2022-11-07T11:34:27.809Z,14.00
2022-11-07T11:37:04.071Z,14.10
2022-11-07T11:39:47.334Z,14.10
2022-11-07T11:42:39.762Z,14.00
2022-11-07T11:45:27.120Z,13.80
2022-11-07T11:48:02.050Z,13.70
2022-11-07T11:50:54.695Z,13.70
2022-11-07T11:53:22.850Z,13.70
2022-11-07T11:56:07.700Z,13.60
2022-11-07T11:59:11.650Z,13.70
2022-11-07T12:01:48.279Z,13.90
2022-11-07T12:04:57.039Z,13.90
2022-11-07T12:07:47.722Z,13.90
2022-11-07T12:10:30.042Z,13.80
2022-11-07T12:13:28.713Z,13.80
2022-11-07T12:16:21.745Z,13.70
2022-11-07T12:19:01.994Z,13.60
2022-11-07T12:21:34.106Z,13.70
2022-11-07T12:24:33.741Z,13.60
2022-11-07T12:27:16.586Z,13.60
2022-11-07T12:29:46.095Z,13.60
2022-11-07T12:32:24.986Z,13.50
2022-11-07T12:35:10.240Z,13.50
2022-11-07T12:37:52.433Z,13.50
2022-11-07T12:40:57.210Z,13.50
2022-11-07T12:43:47.098Z,13.60
2022-11-07T12:46:50.965Z,13.90
2022-11-07T12:49:32.360Z,14.10
2022-11-07T12:52:01.698Z,14.20
2022-11-07T12:54:40.223Z,14.20
2022-11-07T12:57:23.624Z,14.10
2022-11-07T12:59:57.623Z,14.10
2022-11-07T13:03:01.816Z,14.00
2022-11-07T13:05:57.167Z,14.00
2022-11-07T13:08:55.048Z,13.90
2022-11-07T13:11:38.744Z,13.80
2022-11-07T13:14:26.392Z,13.70
2022-11-07T13:17:17.417Z,13.60
2022-11-07T13:20:05.602Z,13.70
2022-11-07T13:22:40.779Z,13.60
2022-11-07T13:25:17.285Z,13.70
2022-11-07T13:27:59.544Z,13.60
2022-11-07T13:30:31.949Z,13.60
2022-11-07T13:33:00.456Z,13.70
2022-11-07T13:35:35.906Z,13.70
2022-11-07T13:38:11.070Z,13.80
2022-11-07T13:41:01.255Z,13.80
2022-11-07T13:43:56.084Z,13.80
2022-11-07T13:46:32.022Z,13.80
2022-11-07T13:49:03.285Z,13.80
2022-11-07T13:51:37.309Z,13.80
2022-11-07T13:54:27.638Z,13.70
2022-11-07T13:57:01.200Z,13.70
2022-11-07T13:59:49.953Z,13.70
2022-11-07T14:02:31.540Z,13.70
2022-11-07T14:05:17.622Z,13.70
2022-11-07T14:07:50.980Z,13.70
2022-11-07T14:10:37.100Z,13.70
2022-11-07T14:13:14.358Z,13.70
2022-11-07T14:15:47.492Z,13.70
2022-11-07T14:18:16.516Z,13.70
2022-11-07T14:20:53.370Z,13.70
2022-11-07T14:23:22.615Z,13.60
2022-11-07T14:26:26.288Z,13.60
2022-11-07T14:28:57.603Z,13.60
2022-11-07T14:31:32.777Z,13.60
2022-11-07T14:34:02.505Z,13.50
2022-11-07T14:36:30.062Z,13.50
2022-11-07T14:39:11.440Z,13.60
2022-11-07T14:41:43.503Z,13.60
2022-11-07T14:44:20.204Z,13.50
2022-11-07T14:46:47.430Z,13.40
2022-11-07T14:49:27.721Z,13.40
2022-11-07T14:51:55.706Z,13.40
2022-11-07T14:54:31.828Z,13.30
2022-11-07T14:56:59.932Z,13.30
2022-11-07T14:59:30.308Z,13.30
2022-11-07T15:02:19.297Z,13.30
2022-11-07T15:04:47.808Z,13.20
2022-11-07T15:07:23.719Z,13.20
2022-11-07T15:09:51.636Z,13.10
2022-11-07T15:12:24.584Z,13.10
2022-11-07T15:15:02.347Z,13.10
2022-11-07T15:17:29.361Z,13.10
2022-11-07T15:20:05.940Z,13.00
2022-11-07T15:22:38.102Z,13.00
2022-11-07T15:25:33.357Z,13.00
2022-11-07T15:28:18.317Z,13.00
2022-11-07T15:30:45.842Z,13.00
2022-11-07T15:33:17.260Z,12.90
2022-11-07T15:35:46.639Z,12.90
2022-11-07T15:38:20.552Z,12.90
2022-11-07T15:40:48.077Z,12.80
2022-11-07T15:43:14.944Z,12.80
2022-11-07T15:45:42.437Z,12.80
2022-11-07T15:48:17.006Z,12.80
2022-11-07T15:50:45.272Z,12.80
2022-11-07T15:53:23.468Z,12.80
2022-11-07T15:55:58.691Z,12.80
2022-11-07T15:58:27.491Z,12.80
2022-11-07T16:00:55.282Z,12.80
2022-11-07T16:03:24.274Z,12.80
2022-11-07T16:05:53.040Z,12.80
2022-11-07T16:08:23.010Z,12.80
2022-11-07T16:10:53.029Z,12.80
2022-11-07T16:13:19.658Z,12.80
2022-11-07T16:15:50.338Z,12.80
2022-11-07T16:18:19.428Z,12.80
2022-11-07T16:20:47.315Z,12.80
2022-11-07T16:23:14.660Z,12.80
2022-11-07T16:25:43.112Z,12.80
2022-11-07T16:28:26.795Z,12.80
2022-11-07T16:30:53.456Z,12.80
2022-11-07T16:33:20.138Z,12.80
2022-11-07T16:35:52.725Z,12.80
2022-11-07T16:38:22.023Z,12.70
2022-11-07T16:40:48.955Z,12.70
2022-11-07T16:43:16.092Z,12.70
2022-11-07T16:45:48.562Z,12.70
2022-11-07T16:48:27.530Z,12.60
2022-11-07T16:50:55.892Z,12.60
2022-11-07T16:53:23.881Z,12.50
2022-11-07T16:55:54.256Z,12.50
2022-11-07T16:58:35.141Z,12.40
2022-11-07T17:01:05.306Z,12.30
2022-11-07T17:03:33.129Z,12.30
2022-11-07T17:06:02.208Z,12.30
2022-11-07T17:08:38.041Z,12.30
2022-11-07T17:11:05.965Z,12.30
2022-11-07T17:13:32.910Z,12.30
2022-11-07T17:15:59.776Z,12.30
2022-11-07T17:18:27.712Z,12.30
2022-11-07T17:20:54.823Z,12.40
2022-11-07T17:23:29.509Z,12.40
2022-11-07T17:26:00.169Z,12.40
2022-11-07T17:28:26.884Z,12.40
2022-11-07T17:30:53.554Z,12.40
2022-11-07T17:33:20.234Z,12.40
2022-11-07T17:35:55.510Z,12.30
2022-11-07T17:38:25.242Z,12.30
2022-11-07T17:40:52.040Z,12.30
2022-11-07T17:43:18.651Z,12.30
2022-11-07T17:45:45.414Z,12.20
2022-11-07T17:48:12.050Z,12.20
2022-11-07T17:50:39.812Z,12.20
2022-11-07T17:53:06.432Z,12.20
2022-11-07T17:55:33.050Z,12.20
2022-11-07T17:57:59.647Z,12.10
2022-11-07T18:00:27.661Z,12.10
2022-11-07T18:02:54.810Z,12.20
2022-11-07T18:05:22.652Z,12.20
2022-11-07T18:07:49.334Z,12.20
2022-11-07T18:10:16.670Z,12.20
2022-11-07T18:12:43.720Z,12.20
2022-11-07T18:15:12.768Z,12.20
2022-11-07T18:17:40.791Z,12.20
2022-11-07T18:20:09.186Z,12.20
2022-11-07T18:22:37.109Z,12.20
2022-11-07T18:25:05.757Z,12.20
2022-11-07T18:27:32.385Z,12.10
2022-11-07T18:29:59.078Z,12.10
2022-11-07T18:32:25.952Z,12.10
2022-11-07T18:34:52.658Z,12.10
2022-11-07T18:37:19.458Z,12.10
2022-11-07T18:39:46.369Z,12.10
2022-11-07T18:42:13.253Z,12.10
2022-11-07T18:44:39.954Z,12.10
2022-11-07T18:47:06.680Z,12.20
2022-11-07T18:49:33.459Z,12.20
2022-11-07T18:52:00.217Z,12.20
2022-11-07T18:54:27.111Z,12.20
2022-11-07T18:56:53.841Z,12.20
2022-11-07T18:59:20.572Z,12.10
2022-11-07T19:01:47.379Z,12.10
2022-11-07T19:04:14.256Z,12.10
2022-11-07T19:06:56.049Z,12.00
2022-11-07T19:09:31.138Z,12.00
2022-11-07T19:11:59.252Z,12.00
2022-11-07T19:14:27.654Z,12.00
2022-11-07T19:16:54.470Z,12.00
2022-11-07T19:19:21.339Z,12.00
2022-11-07T19:21:48.071Z,12.00
2022-11-07T19:24:15.412Z,12.00
2022-11-07T19:26:42.064Z,12.00
2022-11-07T19:29:12.109Z,12.00
2022-11-07T19:31:38.979Z,11.90
2022-11-07T19:34:06.132Z,11.80
2022-11-07T19:36:33.318Z,11.80
2022-11-07T19:39:02.082Z,11.80
2022-11-07T19:41:28.691Z,11.70
2022-11-07T19:43:55.863Z,11.60
2022-11-07T19:46:23.282Z,11.50
2022-11-07T19:48:51.270Z,11.50
2022-11-07T19:51:22.513Z,11.50
2022-11-07T19:53:57.891Z,11.40
2022-11-07T19:56:26.510Z,11.40
2022-11-07T19:58:54.228Z,11.40
2022-11-07T20:01:27.570Z,11.30
2022-11-07T20:03:55.858Z,11.30
2022-11-07T20:06:26.041Z,11.20
2022-11-07T20:08:52.843Z,11.20
2022-11-07T20:11:22.383Z,11.30
2022-11-07T20:13:49.189Z,11.20
2022-11-07T20:16:16.618Z,11.20
2022-11-07T20:18:43.701Z,11.20
2022-11-07T20:21:13.286Z,11.20
2022-11-07T20:23:41.716Z,11.20
2022-11-07T20:26:11.187Z,11.20
2022-11-07T20:28:38.086Z,11.20
2022-11-07T20:31:09.391Z,11.20
2022-11-07T20:33:36.011Z,11.10
2022-11-07T20:36:06.205Z,11.00
2022-11-07T20:38:33.385Z,11.00
2022-11-07T20:41:01.413Z,11.00
2022-11-07T20:43:28.361Z,10.90
2022-11-07T20:45:55.192Z,10.80
2022-11-07T20:48:22.462Z,10.80
2022-11-07T20:50:49.240Z,10.70
2022-11-07T20:53:16.112Z,10.60
2022-11-07T20:55:44.026Z,10.50
2022-11-07T20:58:11.974Z,10.40
2022-11-07T21:00:40.612Z,10.40
2022-11-07T21:03:13.213Z,10.40
2022-11-07T21:05:39.935Z,10.40
2022-11-07T21:08:06.557Z,10.40
2022-11-07T21:10:33.301Z,10.30
2022-11-07T21:12:59.950Z,10.20
2022-11-07T21:15:26.541Z,10.10
2022-11-07T21:17:53.146Z,10.10
2022-11-07T21:20:19.746Z,10.00
2022-11-07T21:22:50.333Z,10.00
2022-11-07T21:25:17.230Z,10.10
2022-11-07T21:27:44.039Z,10.10
2022-11-07T21:30:12.584Z,10.10
2022-11-07T21:32:40.922Z,10.20
2022-11-07T21:35:08.612Z,10.30
2022-11-07T21:37:35.763Z,10.30
2022-11-07T21:40:03.569Z,10.40
2022-11-07T21:42:30.179Z,10.40
2022-11-07T21:44:56.949Z,10.50
2022-11-07T21:47:23.602Z,10.50
2022-11-07T21:49:50.211Z,10.50
2022-11-07T21:52:17.281Z,10.50
2022-11-07T21:54:45.383Z,10.60
2022-11-07T21:57:12.069Z,10.60
2022-11-07T21:59:38.666Z,10.60
2022-11-07T22:02:05.511Z,10.50
2022-11-07T22:04:32.622Z,10.50
2022-11-07T22:06:59.369Z,10.40
2022-11-07T22:09:25.995Z,10.30
2022-11-07T22:11:52.722Z,10.20
2022-11-07T22:14:21.603Z,10.10
2022-11-07T22:16:49.785Z,10.10
2022-11-07T22:19:18.035Z,10.00
2022-11-07T22:21:44.906Z,9.90
2022-11-07T22:24:11.708Z,9.70
2022-11-07T22:26:38.596Z,9.60
2022-11-07T22:29:05.416Z,9.60
2022-11-07T22:31:32.234Z,9.60
2022-11-07T22:34:00.372Z,9.60
2022-11-07T22:36:27.258Z,9.60
2022-11-07T22:38:53.921Z,9.50
2022-11-07T22:41:23.257Z,9.50
2022-11-07T22:43:51.264Z,9.50
2022-11-07T22:46:21.232Z,9.40
2022-11-07T22:48:48.591Z,9.20
2022-11-07T22:51:20.928Z,9.10
2022-11-07T22:53:47.994Z,9.00
2022-11-07T22:56:19.269Z,8.90
2022-11-07T22:58:47.227Z,8.90
2022-11-07T23:01:19.587Z,8.70
2022-11-07T23:03:47.001Z,8.70
2022-11-07T23:06:14.193Z,8.60
2022-11-07T23:08:41.224Z,8.50
2022-11-07T23:11:44.695Z,8.40
2022-11-07T23:14:06.832Z,8.50
2022-11-07T23:16:43.872Z,8.40
2022-11-07T23:19:13.742Z,8.40
2022-11-07T23:21:40.794Z,8.50
2022-11-07T23:24:07.807Z,8.40
2022-11-07T23:26:35.436Z,8.40
2022-11-07T23:29:16.973Z,8.50
2022-11-07T23:31:46.634Z,8.60
2022-11-07T23:34:14.162Z,8.70
2022-11-07T23:36:43.640Z,8.70
2022-11-07T23:39:17.329Z,8.70
2022-11-07T23:41:44.517Z,8.60
2022-11-07T23:44:11.698Z,8.40
2022-11-07T23:46:56.733Z,8.30
2022-11-07T23:49:42.317Z,8.10
2022-11-07T23:52:09.185Z,7.90
2022-11-07T23:54:54.534Z,7.70
2022-11-07T23:57:21.390Z,7.60
